createdAt,value
2017-01-02T00:00:57.202Z,0
2017-01-02T00:01:57.454Z,0
2017-01-02T00:02:57.190Z,0
2017-01-02T00:03:57.194Z,0
2017-01-02T00:04:56.359Z,0
2017-01-02T00:05:57.186Z,0
2017-01-02T00:06:57.182Z,0
2017-01-02T00:07:56.762Z,0
2017-01-02T00:08:57.166Z,0
2017-01-02T00:09:57.159Z,0
2017-01-02T00:10:56.755Z,0
2017-01-02T00:11:57.182Z,0
2017-01-02T00:12:57.151Z,0
2017-01-02T00:13:57.563Z,0
2017-01-02T00:14:57.554Z,0
2017-01-02T00:15:57.578Z,0
2017-01-02T00:16:57.546Z,0
2017-01-02T00:17:57.127Z,0
2017-01-02T00:18:57.122Z,0
2017-01-02T00:19:56.710Z,0
2017-01-02T00:20:57.118Z,0
2017-01-02T00:21:57.111Z,0
2017-01-02T00:22:57.522Z,0
2017-01-02T00:23:57.511Z,0
2017-01-02T00:24:57.123Z,0
2017-01-02T00:26:03.766Z,0
2017-01-02T00:26:56.675Z,0
2017-01-02T00:27:57.495Z,0
2017-01-02T00:28:57.078Z,0
2017-01-02T00:29:57.079Z,0
2017-01-02T00:30:57.479Z,0
2017-01-02T00:31:57.062Z,0
2017-01-02T00:32:56.654Z,0
2017-01-02T00:33:57.470Z,0
2017-01-02T00:34:57.458Z,0
2017-01-02T00:35:56.631Z,0
2017-01-02T00:36:57.047Z,0
2017-01-02T00:37:57.027Z,0
2017-01-02T00:38:57.023Z,0
2017-01-02T00:39:56.619Z,0
2017-01-02T00:40:56.618Z,0
2017-01-02T00:41:57.019Z,0
2017-01-02T00:42:57.025Z,0
2017-01-02T00:43:57.007Z,0
2017-01-02T00:44:57.415Z,0
2017-01-02T00:45:57.403Z,0
2017-01-02T00:46:56.987Z,0
2017-01-02T00:47:56.611Z,0
2017-01-02T00:48:56.979Z,0
2017-01-02T00:49:57.387Z,0
2017-01-02T00:50:56.982Z,0
2017-01-02T00:51:56.963Z,0
2017-01-02T00:52:57.387Z,0
2017-01-02T00:53:56.559Z,0
2017-01-02T00:54:56.959Z,0
2017-01-02T00:55:56.983Z,0
2017-01-02T00:56:56.118Z,0
2017-01-02T00:57:57.351Z,0
2017-01-02T00:58:56.939Z,0
2017-01-02T00:59:56.935Z,0
2017-01-02T01:00:56.951Z,0
2017-01-02T01:01:56.510Z,0
2017-01-02T01:02:56.919Z,0
2017-01-02T01:03:57.331Z,0
2017-01-02T01:04:56.091Z,0
2017-01-02T01:05:56.899Z,0
2017-01-02T01:06:56.530Z,0
2017-01-02T01:07:56.479Z,0
2017-01-02T01:08:56.895Z,0
2017-01-02T01:09:56.887Z,0
2017-01-02T01:10:56.887Z,0
2017-01-02T01:11:57.283Z,0
2017-01-02T01:12:57.291Z,0
2017-01-02T01:13:56.887Z,0
2017-01-02T01:14:56.859Z,0
2017-01-02T01:15:56.039Z,0
2017-01-02T01:16:56.867Z,0
2017-01-02T01:17:56.854Z,0
2017-01-02T01:18:56.431Z,0
2017-01-02T01:19:56.835Z,0
2017-01-02T01:20:56.847Z,0
2017-01-02T01:21:57.027Z,0
2017-01-02T01:22:57.247Z,0
2017-01-02T01:23:56.851Z,0
2017-01-02T01:24:55.995Z,0
2017-01-02T01:25:56.819Z,0
2017-01-02T01:26:57.219Z,0
2017-01-02T01:27:55.987Z,0
2017-01-02T01:28:56.391Z,0
2017-01-02T01:29:56.815Z,0
2017-01-02T01:30:56.775Z,0
2017-01-02T01:31:57.195Z,0
2017-01-02T01:32:56.787Z,0
2017-01-02T01:33:56.371Z,0
2017-01-02T01:34:56.775Z,0
2017-01-02T01:35:56.771Z,0
2017-01-02T01:36:57.198Z,0
2017-01-02T01:37:56.339Z,0
2017-01-02T01:38:56.351Z,0
2017-01-02T01:39:55.924Z,0
2017-01-02T01:40:56.327Z,0
2017-01-02T01:41:56.740Z,0
2017-01-02T01:42:56.735Z,0
2017-01-02T01:43:56.344Z,0
2017-01-02T01:44:56.316Z,0
2017-01-02T01:45:57.135Z,0
2017-01-02T01:46:56.304Z,0
2017-01-02T01:47:56.296Z,0
2017-01-02T01:48:57.116Z,0
2017-01-02T01:49:56.303Z,0
2017-01-02T01:50:56.700Z,0
2017-01-02T01:51:56.692Z,0
2017-01-02T01:52:55.864Z,0
2017-01-02T01:53:56.692Z,0
2017-01-02T01:54:56.268Z,0
2017-01-02T01:55:57.084Z,0
2017-01-02T01:56:56.680Z,0
2017-01-02T01:57:57.084Z,0
2017-01-02T01:58:57.076Z,0
2017-01-02T01:59:57.065Z,0
2017-01-02T02:00:56.240Z,0
2017-01-02T02:01:57.052Z,0
2017-01-02T02:02:56.640Z,0
2017-01-02T02:03:56.644Z,0
2017-01-02T02:04:56.228Z,0
2017-01-02T02:05:56.633Z,0
2017-01-02T02:06:56.212Z,0
2017-01-02T02:07:56.209Z,0
2017-01-02T02:08:55.788Z,0
2017-01-02T02:09:56.617Z,0
2017-01-02T02:10:56.605Z,0
2017-01-02T02:11:55.785Z,0
2017-01-02T02:12:56.181Z,0
2017-01-02T02:13:57.005Z,0
2017-01-02T02:14:56.181Z,0
2017-01-02T02:15:56.573Z,0
2017-01-02T02:16:57.245Z,0
2017-01-02T02:17:56.161Z,0
2017-01-02T02:18:57.001Z,0
2017-01-02T02:19:56.145Z,0
2017-01-02T02:20:56.561Z,0
2017-01-02T02:21:56.561Z,0
2017-01-02T02:22:56.554Z,0
2017-01-02T02:23:56.546Z,0
2017-01-02T02:24:56.537Z,0
2017-01-02T02:25:55.714Z,0
2017-01-02T02:26:56.942Z,0
2017-01-02T02:27:56.525Z,0
2017-01-02T02:28:56.522Z,0
2017-01-02T02:29:56.118Z,0
2017-01-02T02:30:55.690Z,0
2017-01-02T02:31:56.918Z,0
2017-01-02T02:32:56.922Z,0
2017-01-02T02:33:56.082Z,0
2017-01-02T02:34:56.490Z,0
2017-01-02T02:35:56.498Z,0
2017-01-02T02:36:56.490Z,0
2017-01-02T02:37:56.490Z,0
2017-01-02T02:38:56.070Z,0
2017-01-02T02:39:56.474Z,0
2017-01-02T02:40:56.466Z,0
2017-01-02T02:41:56.886Z,0
2017-01-02T02:42:56.462Z,0
2017-01-02T02:43:56.042Z,0
2017-01-02T02:44:56.456Z,0
2017-01-02T02:45:56.450Z,0
2017-01-02T02:46:56.858Z,0
2017-01-02T02:47:56.035Z,0
2017-01-02T02:48:56.847Z,0
2017-01-02T02:49:56.422Z,0
2017-01-02T02:50:56.834Z,0
2017-01-02T02:51:56.427Z,0
2017-01-02T02:52:56.411Z,0
2017-01-02T02:53:55.991Z,0
2017-01-02T02:54:55.585Z,0
2017-01-02T02:55:56.403Z,0
2017-01-02T02:56:56.815Z,0
2017-01-02T02:57:56.395Z,0
2017-01-02T02:58:55.971Z,0
2017-01-02T02:59:56.371Z,0
2017-01-02T03:00:56.419Z,0
2017-01-02T03:01:56.791Z,0
2017-01-02T03:02:55.559Z,0
2017-01-02T03:03:56.363Z,0
2017-01-02T03:04:56.355Z,0
2017-01-02T03:05:56.759Z,0
2017-01-02T03:06:56.343Z,0
2017-01-02T03:07:56.755Z,0
2017-01-02T03:08:56.337Z,0
2017-01-02T03:09:56.339Z,0
2017-01-02T03:10:56.747Z,0
2017-01-02T03:11:56.327Z,0
2017-01-02T03:12:56.315Z,0
2017-01-02T03:13:56.328Z,0
2017-01-02T03:14:55.900Z,0
2017-01-02T03:15:56.315Z,0
2017-01-02T03:16:55.888Z,0
2017-01-02T03:17:55.472Z,0
2017-01-02T03:18:56.292Z,0
2017-01-02T03:19:55.875Z,0
2017-01-02T03:20:55.876Z,0
2017-01-02T03:21:56.280Z,0
2017-01-02T03:22:56.268Z,0
2017-01-02T03:23:55.860Z,0
2017-01-02T03:24:55.880Z,0
2017-01-02T03:25:56.664Z,0
2017-01-02T03:26:55.852Z,0
2017-01-02T03:27:56.252Z,0
2017-01-02T03:28:55.836Z,0
2017-01-02T03:29:56.244Z,0
2017-01-02T03:30:56.652Z,0
2017-01-02T03:31:55.848Z,0
2017-01-02T03:32:55.820Z,0
2017-01-02T03:33:55.400Z,0
2017-01-02T03:34:56.624Z,0
2017-01-02T03:35:56.624Z,0
2017-01-02T03:36:56.196Z,0
2017-01-02T03:37:56.609Z,0
2017-01-02T03:38:55.788Z,0
2017-01-02T03:39:56.209Z,0
2017-01-02T03:40:55.400Z,0
2017-01-02T03:41:56.188Z,0
2017-01-02T03:42:55.769Z,0
2017-01-02T03:43:56.177Z,0
2017-01-02T03:44:55.346Z,0
2017-01-02T03:45:56.173Z,0
2017-01-02T03:46:56.161Z,0
2017-01-02T03:47:55.749Z,0
2017-01-02T03:48:56.568Z,0
2017-01-02T03:49:55.729Z,0
2017-01-02T03:50:56.149Z,0
2017-01-02T03:51:55.737Z,0
2017-01-02T03:52:56.537Z,0
2017-01-02T03:53:55.717Z,0
2017-01-02T03:54:56.136Z,0
2017-01-02T03:55:56.125Z,0
2017-01-02T03:56:55.704Z,0
2017-01-02T03:57:56.108Z,0
2017-01-02T03:58:56.113Z,0
2017-01-02T03:59:56.508Z,0
2017-01-02T04:00:55.696Z,0
2017-01-02T04:01:55.681Z,0
2017-01-02T04:02:56.093Z,0
2017-01-02T04:03:55.676Z,0
2017-01-02T04:04:56.109Z,0
2017-01-02T04:05:56.485Z,0
2017-01-02T04:06:56.472Z,0
2017-01-02T04:07:56.480Z,0
2017-01-02T04:08:55.649Z,0
2017-01-02T04:09:56.052Z,0
2017-01-02T04:10:55.229Z,0
2017-01-02T04:11:56.461Z,0
2017-01-02T04:12:55.625Z,0
2017-01-02T04:13:56.057Z,0
2017-01-02T04:14:56.053Z,0
2017-01-02T04:15:55.613Z,0
2017-01-02T04:16:55.201Z,0
2017-01-02T04:17:55.605Z,0
2017-01-02T04:18:55.605Z,0
2017-01-02T04:19:56.017Z,0
2017-01-02T04:20:56.013Z,0
2017-01-02T04:21:56.401Z,0
2017-01-02T04:22:55.589Z,0
2017-01-02T04:23:55.169Z,0
2017-01-02T04:24:56.413Z,0
2017-01-02T04:25:55.601Z,0
2017-01-02T04:26:55.573Z,0
2017-01-02T04:27:55.984Z,0
2017-01-02T04:28:55.553Z,0
2017-01-02T04:29:55.965Z,0
2017-01-02T04:30:56.369Z,0
2017-01-02T04:31:55.957Z,0
2017-01-02T04:32:56.389Z,0
2017-01-02T04:33:55.941Z,0
2017-01-02T04:34:55.113Z,0
2017-01-02T04:35:55.933Z,0
2017-01-02T04:36:55.925Z,0
2017-01-02T04:37:55.921Z,0
2017-01-02T04:38:56.357Z,0
2017-01-02T04:39:56.321Z,0
2017-01-02T04:40:55.497Z,0
2017-01-02T04:41:55.901Z,0
2017-01-02T04:42:55.893Z,0
2017-01-02T04:43:56.301Z,0
2017-01-02T04:44:55.889Z,0
2017-01-02T04:45:56.326Z,0
2017-01-02T04:46:55.469Z,0
2017-01-02T04:47:55.470Z,0
2017-01-02T04:48:56.281Z,0
2017-01-02T04:49:55.449Z,0
2017-01-02T04:50:55.861Z,0
2017-01-02T04:51:54.621Z,0
2017-01-02T04:52:55.437Z,0
2017-01-02T04:53:55.433Z,0
2017-01-02T04:54:55.845Z,0
2017-01-02T04:55:55.841Z,0
2017-01-02T04:56:56.258Z,0
2017-01-02T04:57:55.821Z,0
2017-01-02T04:58:55.837Z,0
2017-01-02T04:59:55.825Z,0
2017-01-02T05:00:54.998Z,0
2017-01-02T05:01:55.801Z,0
2017-01-02T05:02:55.393Z,0
2017-01-02T05:03:55.797Z,0
2017-01-02T05:04:55.808Z,0
2017-01-02T05:05:55.377Z,0
2017-01-02T05:06:55.788Z,0
2017-01-02T05:07:55.792Z,0
2017-01-02T05:08:56.185Z,0
2017-01-02T05:09:55.777Z,0
2017-01-02T05:10:55.361Z,0
2017-01-02T05:11:55.776Z,0
2017-01-02T05:12:56.173Z,0
2017-01-02T05:13:55.345Z,0
2017-01-02T05:14:55.337Z,0
2017-01-02T05:15:55.744Z,0
2017-01-02T05:16:55.737Z,0
2017-01-02T05:17:55.744Z,0
2017-01-02T05:18:55.725Z,0
2017-01-02T05:19:54.905Z,0
2017-01-02T05:20:56.133Z,0
2017-01-02T05:21:56.149Z,0
2017-01-02T05:22:55.305Z,0
2017-01-02T05:23:55.697Z,0
2017-01-02T05:24:55.693Z,0
2017-01-02T05:25:56.109Z,0
2017-01-02T05:26:55.697Z,0
2017-01-02T05:27:55.686Z,0
2017-01-02T05:28:54.853Z,0
2017-01-02T05:29:56.097Z,0
2017-01-02T05:30:55.709Z,0
2017-01-02T05:31:55.665Z,0
2017-01-02T05:32:55.253Z,0
2017-01-02T05:33:55.249Z,0
2017-01-02T05:34:55.261Z,0
2017-01-02T05:35:55.241Z,0
2017-01-02T05:36:55.645Z,0
2017-01-02T05:37:56.045Z,0
2017-01-02T05:38:55.657Z,0
2017-01-02T05:39:55.213Z,0
2017-01-02T05:40:54.805Z,0
2017-01-02T05:41:55.213Z,0
2017-01-02T05:42:56.025Z,0
2017-01-02T05:43:54.785Z,0
2017-01-02T05:44:55.617Z,0
2017-01-02T05:45:55.194Z,0
2017-01-02T05:46:55.593Z,0
2017-01-02T05:47:55.589Z,0
2017-01-02T05:48:55.598Z,0
2017-01-02T05:49:55.178Z,0
2017-01-02T05:50:55.590Z,0
2017-01-02T05:51:55.973Z,0
2017-01-02T05:52:54.753Z,0
2017-01-02T05:53:55.562Z,0
2017-01-02T05:54:54.734Z,0
2017-01-02T05:55:55.141Z,0
2017-01-02T05:56:55.550Z,0
2017-01-02T05:57:55.138Z,0
2017-01-02T05:58:55.541Z,0
2017-01-02T05:59:55.546Z,0
2017-01-02T06:00:55.534Z,0
2017-01-02T06:01:55.122Z,0
2017-01-02T06:02:55.518Z,0
2017-01-02T06:03:55.113Z,0
2017-01-02T06:04:54.686Z,0
2017-01-02T06:05:55.090Z,0
2017-01-02T06:06:55.098Z,0
2017-01-02T06:07:55.090Z,0
2017-01-02T06:08:55.498Z,0
2017-01-02T06:09:55.074Z,0
2017-01-02T06:10:55.490Z,0
2017-01-02T06:11:55.479Z,0
2017-01-02T06:12:55.478Z,0
2017-01-02T06:13:55.475Z,0
2017-01-02T06:14:55.046Z,0
2017-01-02T06:15:55.462Z,0
2017-01-02T06:16:55.455Z,0
2017-01-02T06:17:55.450Z,0
2017-01-02T06:18:55.451Z,0
2017-01-02T06:19:55.450Z,0
2017-01-02T06:20:55.034Z,0
2017-01-02T06:21:55.038Z,0
2017-01-02T06:22:55.023Z,0
2017-01-02T06:23:55.418Z,0
2017-01-02T06:24:55.010Z,0
2017-01-02T06:25:55.419Z,0
2017-01-02T06:26:54.998Z,0
2017-01-02T06:27:55.398Z,0
2017-01-02T06:28:55.811Z,0
2017-01-02T06:29:54.982Z,0
2017-01-02T06:30:55.403Z,0
2017-01-02T06:31:55.387Z,0
2017-01-02T06:32:55.379Z,0
2017-01-02T06:33:54.971Z,0
2017-01-02T06:34:54.959Z,0
2017-01-02T06:35:54.955Z,0
2017-01-02T06:36:54.963Z,0
2017-01-02T06:37:55.359Z,0
2017-01-02T06:38:55.354Z,0
2017-01-02T06:39:55.351Z,0
2017-01-02T06:40:55.743Z,0
2017-01-02T06:41:54.944Z,0
2017-01-02T06:42:55.335Z,0
2017-01-02T06:43:55.323Z,0
2017-01-02T06:44:54.515Z,0
2017-01-02T06:45:55.731Z,0
2017-01-02T06:46:55.323Z,0
2017-01-02T06:47:55.323Z,0
2017-01-02T06:48:55.307Z,0
2017-01-02T06:49:54.888Z,0
2017-01-02T06:50:54.891Z,0
2017-01-02T06:51:54.879Z,0
2017-01-02T06:52:55.284Z,0
2017-01-02T06:53:55.275Z,0
2017-01-02T06:54:55.283Z,0
2017-01-02T06:55:55.725Z,0
2017-01-02T06:56:55.276Z,0
2017-01-02T06:57:55.267Z,0
2017-01-02T06:58:55.259Z,0
2017-01-02T06:59:55.255Z,0
2017-01-02T07:00:55.283Z,0
2017-01-02T07:01:55.247Z,0
2017-01-02T07:02:54.831Z,0
2017-01-02T07:03:54.832Z,0
2017-01-02T07:04:54.820Z,0
2017-01-02T07:05:54.808Z,0
2017-01-02T07:06:54.424Z,0
2017-01-02T07:07:55.240Z,0
2017-01-02T07:08:55.203Z,0
2017-01-02T07:09:55.212Z,0
2017-01-02T07:10:54.380Z,0
2017-01-02T07:11:55.200Z,0
2017-01-02T07:12:55.612Z,0
2017-01-02T07:13:55.184Z,0
2017-01-02T07:14:54.780Z,0
2017-01-02T07:15:54.784Z,0
2017-01-02T07:16:54.348Z,0
2017-01-02T07:17:55.168Z,0
2017-01-02T07:18:55.164Z,0
2017-01-02T07:19:55.573Z,0
2017-01-02T07:20:55.565Z,0
2017-01-02T07:21:54.745Z,0
2017-01-02T07:22:55.184Z,0
2017-01-02T07:23:53.913Z,0
2017-01-02T07:24:55.137Z,0
2017-01-02T07:25:55.133Z,0
2017-01-02T07:26:54.721Z,0
2017-01-02T07:27:55.129Z,0
2017-01-02T07:28:55.113Z,0
2017-01-02T07:29:55.121Z,0
2017-01-02T07:30:54.709Z,0
2017-01-02T07:31:55.525Z,0
2017-01-02T07:32:54.689Z,5
2017-01-02T07:33:55.093Z,5
2017-01-02T07:34:54.681Z,5
2017-01-02T07:35:54.677Z,5
2017-01-02T07:36:55.505Z,5
2017-01-02T07:37:54.665Z,5
2017-01-02T07:38:55.073Z,5
2017-01-02T07:39:54.662Z,5
2017-01-02T07:40:55.058Z,5
2017-01-02T07:41:55.070Z,5
2017-01-02T07:42:55.054Z,5
2017-01-02T07:43:54.845Z,5
2017-01-02T07:44:55.046Z,5
2017-01-02T07:45:55.450Z,5
2017-01-02T07:46:54.626Z,5
2017-01-02T07:47:55.038Z,5
2017-01-02T07:48:54.626Z,5
2017-01-02T07:49:55.026Z,5
2017-01-02T07:50:55.030Z,5
2017-01-02T07:51:54.206Z,5
2017-01-02T07:52:54.602Z,5
2017-01-02T07:53:55.006Z,5
2017-01-02T07:54:55.422Z,5
2017-01-02T07:55:54.587Z,5
2017-01-02T07:56:55.394Z,5
2017-01-02T07:57:54.983Z,5
2017-01-02T07:58:54.991Z,5
2017-01-02T07:59:54.971Z,5
2017-01-02T08:00:54.559Z,5
2017-01-02T08:01:54.975Z,5
2017-01-02T08:02:54.579Z,5
2017-01-02T08:03:54.955Z,5
2017-01-02T08:04:54.539Z,5
2017-01-02T08:05:54.943Z,10
2017-01-02T08:06:54.947Z,10
2017-01-02T08:07:54.123Z,10
2017-01-02T08:08:54.520Z,10
2017-01-02T08:09:54.935Z,10
2017-01-02T08:10:54.523Z,10
2017-01-02T08:11:54.927Z,10
2017-01-02T08:12:54.919Z,15
2017-01-02T08:13:54.516Z,10
2017-01-02T08:14:55.320Z,10
2017-01-02T08:15:54.903Z,10
2017-01-02T08:16:54.904Z,15
2017-01-02T08:17:55.328Z,15
2017-01-02T08:18:54.480Z,15
2017-01-02T08:19:54.892Z,15
2017-01-02T08:20:54.064Z,15
2017-01-02T08:21:54.876Z,15
2017-01-02T08:22:54.880Z,15
2017-01-02T08:23:54.876Z,15
2017-01-02T08:24:54.460Z,15
2017-01-02T08:25:54.036Z,15
2017-01-02T08:26:54.448Z,15
2017-01-02T08:27:54.025Z,15
2017-01-02T08:28:54.844Z,15
2017-01-02T08:29:54.844Z,15
2017-01-02T08:30:54.421Z,15
2017-01-02T08:31:54.824Z,15
2017-01-02T08:32:54.836Z,15
2017-01-02T08:33:55.232Z,20
2017-01-02T08:34:54.001Z,20
2017-01-02T08:35:55.229Z,20
2017-01-02T08:36:54.809Z,20
2017-01-02T08:37:55.209Z,20
2017-01-02T08:38:54.389Z,20
2017-01-02T08:39:54.393Z,20
2017-01-02T08:40:54.793Z,20
2017-01-02T08:41:55.201Z,20
2017-01-02T08:42:53.973Z,20
2017-01-02T08:43:55.189Z,20
2017-01-02T08:44:54.777Z,20
2017-01-02T08:45:54.357Z,20
2017-01-02T08:46:54.757Z,20
2017-01-02T08:47:54.761Z,20
2017-01-02T08:48:54.769Z,20
2017-01-02T08:49:54.757Z,20
2017-01-02T08:50:54.733Z,25
2017-01-02T08:51:54.742Z,25
2017-01-02T08:52:54.733Z,25
2017-01-02T08:53:54.739Z,25
2017-01-02T08:54:54.725Z,25
2017-01-02T08:55:54.729Z,25
2017-01-02T08:56:54.309Z,25
2017-01-02T08:57:54.714Z,25
2017-01-02T08:58:54.721Z,25
2017-01-02T08:59:54.714Z,25
2017-01-02T09:00:55.117Z,25
2017-01-02T09:01:54.694Z,30
2017-01-02T09:02:53.873Z,30
2017-01-02T09:03:54.530Z,30
2017-01-02T09:04:54.694Z,30
2017-01-02T09:05:54.682Z,30
2017-01-02T09:06:54.670Z,30
2017-01-02T09:07:54.678Z,25
2017-01-02T09:08:54.674Z,30
2017-01-02T09:09:53.854Z,30
2017-01-02T09:10:54.251Z,30
2017-01-02T09:11:54.662Z,30
2017-01-02T09:12:54.646Z,30
2017-01-02T09:13:54.235Z,30
2017-01-02T09:14:54.643Z,30
2017-01-02T09:15:54.631Z,30
2017-01-02T09:16:54.222Z,30
2017-01-02T09:17:54.227Z,35
2017-01-02T09:18:54.659Z,30
2017-01-02T09:19:55.036Z,35
2017-01-02T09:20:54.619Z,35
2017-01-02T09:21:55.027Z,30
2017-01-02T09:22:54.603Z,30
2017-01-02T09:23:54.599Z,30
2017-01-02T09:24:53.371Z,30
2017-01-02T09:25:55.007Z,30
2017-01-02T09:26:55.000Z,30
2017-01-02T09:27:55.000Z,35
2017-01-02T09:28:54.995Z,35
2017-01-02T09:29:55.000Z,35
2017-01-02T09:30:54.992Z,35
2017-01-02T09:31:54.568Z,30
2017-01-02T09:32:54.975Z,30
2017-01-02T09:33:54.580Z,25
2017-01-02T09:34:54.559Z,20
2017-01-02T09:35:54.564Z,20
2017-01-02T09:36:53.724Z,20
2017-01-02T09:37:54.984Z,20
2017-01-02T09:38:54.544Z,25
2017-01-02T09:39:54.540Z,25
2017-01-02T09:40:54.540Z,25
2017-01-02T09:41:54.532Z,30
2017-01-02T09:42:54.528Z,30
2017-01-02T09:43:54.105Z,30
2017-01-02T09:44:54.927Z,35
2017-01-02T09:45:54.101Z,30
2017-01-02T09:46:53.688Z,35
2017-01-02T09:47:54.510Z,35
2017-01-02T09:48:54.696Z,35
2017-01-02T09:49:54.493Z,35
2017-01-02T09:50:54.084Z,40
2017-01-02T09:51:54.905Z,45
2017-01-02T09:52:54.888Z,40
2017-01-02T09:53:54.474Z,40
2017-01-02T09:54:54.480Z,35
2017-01-02T09:55:54.477Z,40
2017-01-02T09:56:54.885Z,40
2017-01-02T09:57:54.061Z,40
2017-01-02T09:58:54.457Z,35
2017-01-02T09:59:54.465Z,30
2017-01-02T10:00:54.457Z,30
2017-01-02T10:01:54.473Z,35
2017-01-02T10:02:54.853Z,45
2017-01-02T10:03:54.037Z,45
2017-01-02T10:04:54.845Z,45
2017-01-02T10:05:54.846Z,45
2017-01-02T10:06:54.465Z,45
2017-01-02T10:07:54.017Z,40
2017-01-02T10:08:54.424Z,40
2017-01-02T10:09:54.826Z,40
2017-01-02T10:10:54.006Z,45
2017-01-02T10:11:54.822Z,40
2017-01-02T10:12:53.990Z,35
2017-01-02T10:13:54.402Z,35
2017-01-02T10:14:54.390Z,35
2017-01-02T10:15:54.386Z,40
2017-01-02T10:16:54.390Z,40
2017-01-02T10:17:54.374Z,45
2017-01-02T10:18:54.370Z,45
2017-01-02T10:19:53.962Z,50
2017-01-02T10:20:54.778Z,50
2017-01-02T10:21:53.962Z,50
2017-01-02T10:22:54.358Z,50
2017-01-02T10:23:53.946Z,50
2017-01-02T10:24:54.763Z,50
2017-01-02T10:25:53.947Z,50
2017-01-02T10:26:54.751Z,55
2017-01-02T10:27:54.339Z,55
2017-01-02T10:28:54.755Z,50
2017-01-02T10:29:54.743Z,50
2017-01-02T10:30:53.913Z,55
2017-01-02T10:31:54.323Z,50
2017-01-02T10:32:54.327Z,55
2017-01-02T10:33:53.915Z,55
2017-01-02T10:34:54.319Z,55
2017-01-02T10:35:54.311Z,55
2017-01-02T10:36:54.719Z,55
2017-01-02T10:37:54.715Z,50
2017-01-02T10:38:54.300Z,45
2017-01-02T10:39:54.291Z,50
2017-01-02T10:40:54.703Z,45
2017-01-02T10:41:53.875Z,45
2017-01-02T10:42:53.871Z,50
2017-01-02T10:43:54.280Z,45
2017-01-02T10:44:54.280Z,45
2017-01-02T10:45:53.455Z,40
2017-01-02T10:46:54.272Z,35
2017-01-02T10:47:54.260Z,35
2017-01-02T10:48:54.256Z,40
2017-01-02T10:49:54.249Z,45
2017-01-02T10:50:54.256Z,50
2017-01-02T10:51:53.832Z,45
2017-01-02T10:52:54.250Z,45
2017-01-02T10:53:54.248Z,45
2017-01-02T10:54:54.248Z,45
2017-01-02T10:55:53.820Z,40
2017-01-02T10:56:53.820Z,45
2017-01-02T10:57:54.224Z,40
2017-01-02T10:58:53.804Z,40
2017-01-02T10:59:54.636Z,45
2017-01-02T11:00:54.221Z,45
2017-01-02T11:01:54.624Z,40
2017-01-02T11:02:53.796Z,40
2017-01-02T11:03:54.625Z,40
2017-01-02T11:04:53.792Z,40
2017-01-02T11:05:54.193Z,45
2017-01-02T11:06:54.605Z,50
2017-01-02T11:07:54.185Z,45
2017-01-02T11:08:53.773Z,50
2017-01-02T11:09:54.185Z,45
2017-01-02T11:10:53.773Z,50
2017-01-02T11:11:54.581Z,70
2017-01-02T11:12:54.165Z,70
2017-01-02T11:13:54.169Z,65
2017-01-02T11:14:54.165Z,70
2017-01-02T11:15:53.745Z,80
2017-01-02T11:16:54.153Z,75
2017-01-02T11:17:53.737Z,65
2017-01-02T11:18:54.569Z,75
2017-01-02T11:19:53.725Z,85
2017-01-02T11:20:53.726Z,85
2017-01-02T11:21:54.550Z,95
2017-01-02T11:22:54.141Z,85
2017-01-02T11:23:54.121Z,70
2017-01-02T11:24:54.125Z,75
2017-01-02T11:25:54.537Z,75
2017-01-02T11:26:54.529Z,70
2017-01-02T11:27:54.522Z,85
2017-01-02T11:28:54.110Z,85
2017-01-02T11:29:54.518Z,75
2017-01-02T11:30:54.106Z,70
2017-01-02T11:31:54.517Z,75
2017-01-02T11:32:54.518Z,65
2017-01-02T11:33:53.686Z,75
2017-01-02T11:34:54.510Z,85
2017-01-02T11:35:54.078Z,80
2017-01-02T11:36:54.070Z,60
2017-01-02T11:37:54.486Z,70
2017-01-02T11:38:54.482Z,70
2017-01-02T11:39:53.658Z,55
2017-01-02T11:40:54.478Z,55
2017-01-02T11:41:53.658Z,55
2017-01-02T11:42:54.070Z,60
2017-01-02T11:43:53.682Z,55
2017-01-02T11:44:54.086Z,55
2017-01-02T11:45:54.050Z,60
2017-01-02T11:46:54.042Z,55
2017-01-02T11:47:54.034Z,50
2017-01-02T11:48:54.042Z,50
2017-01-02T11:49:54.454Z,50
2017-01-02T11:50:54.047Z,55
2017-01-02T11:51:54.031Z,60
2017-01-02T11:52:53.619Z,60
2017-01-02T11:53:54.439Z,60
2017-01-02T11:54:54.023Z,60
2017-01-02T11:55:54.427Z,60
2017-01-02T11:56:54.019Z,60
2017-01-02T11:57:53.599Z,55
2017-01-02T11:58:53.595Z,60
2017-01-02T11:59:53.207Z,60
2017-01-02T12:00:54.007Z,70
2017-01-02T12:01:53.167Z,70
2017-01-02T12:02:54.411Z,75
2017-01-02T12:03:53.987Z,85
2017-01-02T12:04:53.983Z,70
2017-01-02T12:05:53.983Z,80
2017-01-02T12:06:53.979Z,85
2017-01-02T12:07:54.383Z,95
2017-01-02T12:08:53.971Z,105
2017-01-02T12:09:53.556Z,95
2017-01-02T12:10:54.379Z,95
2017-01-02T12:11:53.135Z,95
2017-01-02T12:12:53.964Z,90
2017-01-02T12:13:53.963Z,90
2017-01-02T12:14:54.359Z,95
2017-01-02T12:15:53.943Z,105
2017-01-02T12:16:54.347Z,110
2017-01-02T12:17:53.936Z,105
2017-01-02T12:18:53.935Z,95
2017-01-02T12:19:54.343Z,90
2017-01-02T12:20:53.927Z,95
2017-01-02T12:21:54.343Z,85
2017-01-02T12:22:53.920Z,85
2017-01-02T12:23:54.332Z,85
2017-01-02T12:24:53.101Z,80
2017-01-02T12:25:53.920Z,85
2017-01-02T12:26:54.328Z,95
2017-01-02T12:27:53.912Z,100
2017-01-02T12:28:54.328Z,90
2017-01-02T12:29:54.160Z,95
2017-01-02T12:30:53.908Z,85
2017-01-02T12:31:54.300Z,85
2017-01-02T12:32:54.304Z,95
2017-01-02T12:33:54.312Z,80
2017-01-02T12:34:53.874Z,65
2017-01-02T12:35:54.300Z,70
2017-01-02T12:36:53.468Z,65
2017-01-02T12:37:53.464Z,60
2017-01-02T12:38:54.288Z,65
2017-01-02T12:39:53.876Z,65
2017-01-02T12:40:53.868Z,65
2017-01-02T12:41:54.280Z,75
2017-01-02T12:42:53.468Z,80
2017-01-02T12:43:54.265Z,75
2017-01-02T12:44:53.861Z,65
2017-01-02T12:45:53.853Z,55
2017-01-02T12:46:53.856Z,50
2017-01-02T12:47:53.432Z,60
2017-01-02T12:48:53.880Z,70
2017-01-02T12:49:54.280Z,75
2017-01-02T12:50:53.832Z,75
2017-01-02T12:51:53.414Z,75
2017-01-02T12:52:54.238Z,70
2017-01-02T12:53:53.826Z,70
2017-01-02T12:54:53.417Z,70
2017-01-02T12:55:53.417Z,75
2017-01-02T12:56:53.825Z,75
2017-01-02T12:57:53.001Z,80
2017-01-02T12:58:53.404Z,75
2017-01-02T12:59:54.226Z,70
2017-01-02T13:00:53.833Z,70
2017-01-02T13:01:54.209Z,70
2017-01-02T13:02:53.801Z,70
2017-01-02T13:03:53.797Z,70
2017-01-02T13:04:53.785Z,65
2017-01-02T13:05:53.389Z,65
2017-01-02T13:06:53.793Z,65
2017-01-02T13:07:53.789Z,65
2017-01-02T13:08:54.197Z,65
2017-01-02T13:09:54.185Z,65
2017-01-02T13:10:53.365Z,65
2017-01-02T13:11:54.185Z,65
2017-01-02T13:12:54.181Z,60
2017-01-02T13:13:53.365Z,55
2017-01-02T13:14:54.189Z,50
2017-01-02T13:15:53.765Z,55
2017-01-02T13:16:52.938Z,55
2017-01-02T13:17:54.165Z,50
2017-01-02T13:18:54.182Z,55
2017-01-02T13:19:53.741Z,55
2017-01-02T13:20:54.157Z,60
2017-01-02T13:21:54.161Z,65
2017-01-02T13:22:53.746Z,60
2017-01-02T13:23:54.157Z,65
2017-01-02T13:24:53.333Z,65
2017-01-02T13:25:54.137Z,60
2017-01-02T13:26:54.133Z,60
2017-01-02T13:27:53.726Z,55
2017-01-02T13:28:53.306Z,55
2017-01-02T13:29:53.333Z,55
2017-01-02T13:30:53.710Z,50
2017-01-02T13:31:53.293Z,50
2017-01-02T13:32:54.113Z,50
2017-01-02T13:33:53.293Z,50
2017-01-02T13:34:54.121Z,50
2017-01-02T13:35:54.110Z,50
2017-01-02T13:36:54.102Z,50
2017-01-02T13:37:53.698Z,50
2017-01-02T13:38:53.694Z,50
2017-01-02T13:39:53.277Z,50
2017-01-02T13:40:54.105Z,50
2017-01-02T13:41:54.121Z,45
2017-01-02T13:42:53.269Z,45
2017-01-02T13:43:53.677Z,40
2017-01-02T13:44:54.089Z,40
2017-01-02T13:45:54.069Z,40
2017-01-02T13:46:54.078Z,35
2017-01-02T13:47:53.258Z,35
2017-01-02T13:48:53.658Z,35
2017-01-02T13:49:52.821Z,35
2017-01-02T13:50:54.065Z,35
2017-01-02T13:51:54.061Z,35
2017-01-02T13:52:54.061Z,35
2017-01-02T13:53:54.082Z,35
2017-01-02T13:54:52.810Z,35
2017-01-02T13:55:54.053Z,35
2017-01-02T13:56:53.225Z,35
2017-01-02T13:57:54.041Z,35
2017-01-02T13:58:54.032Z,30
2017-01-02T13:59:53.618Z,25
2017-01-02T14:00:54.033Z,25
2017-01-02T14:01:53.617Z,25
2017-01-02T14:02:53.621Z,20
2017-01-02T14:03:53.614Z,20
2017-01-02T14:04:53.197Z,25
2017-01-02T14:05:54.025Z,20
2017-01-02T14:06:54.158Z,20
2017-01-02T14:07:53.186Z,20
2017-01-02T14:08:54.010Z,20
2017-01-02T14:09:52.774Z,20
2017-01-02T14:10:54.009Z,15
2017-01-02T14:11:53.998Z,15
2017-01-02T14:12:53.581Z,15
2017-01-02T14:13:52.746Z,15
2017-01-02T14:14:53.577Z,15
2017-01-02T14:15:53.982Z,15
2017-01-02T14:16:53.570Z,15
2017-01-02T14:17:53.978Z,20
2017-01-02T14:18:53.554Z,20
2017-01-02T14:19:53.565Z,20
2017-01-02T14:20:53.961Z,20
2017-01-02T14:21:53.550Z,20
2017-01-02T14:22:53.954Z,20
2017-01-02T14:23:53.950Z,20
2017-01-02T14:24:53.946Z,20
2017-01-02T14:25:53.534Z,20
2017-01-02T14:26:53.134Z,20
2017-01-02T14:27:53.146Z,20
2017-01-02T14:28:53.114Z,15
2017-01-02T14:29:53.930Z,15
2017-01-02T14:30:53.926Z,15
2017-01-02T14:31:53.522Z,15
2017-01-02T14:32:53.922Z,15